This is the latest recevied weather packets stored in our database for station/object KC5TIL-3. If no packets are shown the sender has not sent any weather packets the latest 10 day(s).
| Time | Temp. | Humidity | Pressure | Rain* | Wind** | Luminosity | Snow |
|---|---|---|---|---|---|---|---|
| 1777687409 | 16.11° C | 30% | 1015.8 hPa | 0 mm | 2.68 m/s, 129° | - | - |
| 1777687112 | 16.11° C | 30% | 1015.8 hPa | 0 mm | 3.13 m/s, 115° | - | - |
| 1777686809 | 16.11° C | 30% | 1015.8 hPa | 0 mm | 1.79 m/s, 110° | - | - |
| 1777686511 | 16.11° C | 30% | 1014.8 hPa | 0 mm | 2.24 m/s, 116° | - | - |
| 1777686214 | 16.11° C | 32% | 1014.8 hPa | 0 mm | 1.79 m/s, 112° | - | - |
| 1777685912 | 16.11° C | 31% | 1014.8 hPa | 0 mm | 2.68 m/s, 108° | - | - |
| 1777685609 | 16.11° C | 31% | 1014.8 hPa | 0 mm | 2.24 m/s, 115° | - | - |
| 1777685311 | 16.11° C | 31% | 1014.8 hPa | 0 mm | 3.13 m/s, 107° | - | - |
| 1777685009 | 16.11° C | 30% | 1014.8 hPa | 0 mm | 2.24 m/s, 118° | - | - |
| 1777684711 | 16.11° C | 29% | 1014.8 hPa | 0 mm | 3.13 m/s, 113° | - | - |
| 1777684413 | 16.67° C | 28% | 1014.8 hPa | 0 mm | 2.24 m/s, 126° | - | - |
| 1777684112 | 16.67° C | 26% | 1014.8 hPa | 0 mm | 2.24 m/s, 123° | - | - |
| 1777683813 | 16.67° C | 26% | 1014.8 hPa | 0 mm | 2.24 m/s, 124° | - | - |
| 1777683516 | 16.67° C | 26% | 1014.8 hPa | 0 mm | 3.13 m/s, 115° | - | - |
| 1777683214 | 16.67° C | 26% | 1014.8 hPa | 0 mm | 1.34 m/s, 141° | - | - |
| 1777682916 | 16.67° C | 26% | 1013.8 hPa | 0 mm | 2.68 m/s, 115° | - | - |
| 1777682618 | 16.67° C | 26% | 1013.8 hPa | 0 mm | 3.13 m/s, 110° | - | - |
| 1777682312 | 16.67° C | 27% | 1013.8 hPa | 0 mm | 1.79 m/s, 128° | - | - |
| 1777682013 | 16.67° C | 27% | 1013.8 hPa | 0 mm | 1.79 m/s, 120° | - | - |
| 1777681715 | 16.67° C | 27% | 1013.8 hPa | 0 mm | 1.34 m/s, 111° | - | - |
| 1777681410 | 16.67° C | 27% | 1013.8 hPa | 0 mm | 2.24 m/s, 101° | - | - |
| 1777681111 | 16.67° C | 27% | 1013.8 hPa | 0 mm | 1.79 m/s, 142° | - | - |
| 1777680814 | 16.67° C | 26% | 1013.8 hPa | 0 mm | 1.34 m/s, 112° | - | - |
| 1777680502 | 17.22° C | 26% | 1013.8 hPa | 0 mm | 1.79 m/s, 120° | - | - |
| 1777680204 | 17.22° C | 27% | 1013.8 hPa | 0 mm | 1.34 m/s, 102° | - | - |
* Rain latest hour (hover to see other rain measurements)
** Current wind speed in m/s (hover to see current wind gust speed)